createdAt,value
2024-05-09T00:00:42.081Z,2.30
2024-05-09T00:03:11.002Z,2.20
2024-05-09T00:05:42.269Z,2.00
2024-05-09T00:08:10.558Z,2.37
2024-05-09T00:10:39.426Z,1.80
2024-05-09T00:13:07.886Z,1.93
2024-05-09T00:15:36.010Z,2.23
2024-05-09T00:18:05.362Z,2.00
2024-05-09T00:20:38.578Z,2.03
2024-05-09T00:23:09.357Z,2.00
2024-05-09T00:25:37.094Z,2.00
2024-05-09T00:28:04.356Z,1.87
2024-05-09T00:30:35.255Z,2.00
2024-05-09T00:33:08.377Z,2.10
2024-05-09T00:35:37.124Z,2.47
2024-05-09T00:38:04.836Z,1.70
2024-05-09T00:40:39.989Z,2.37
2024-05-09T00:43:09.888Z,2.20
2024-05-09T00:45:37.375Z,2.10
2024-05-09T00:48:07.119Z,1.97
2024-05-09T00:50:37.932Z,2.23
2024-05-09T00:53:07.102Z,1.80
2024-05-09T00:55:35.611Z,1.90
2024-05-09T00:58:03.631Z,2.30
2024-05-09T01:00:37.919Z,2.00
2024-05-09T01:03:08.239Z,1.93
2024-05-09T01:05:36.117Z,2.20
2024-05-09T01:08:03.533Z,1.80
2024-05-09T01:10:34.826Z,2.57
2024-05-09T01:13:07.180Z,1.90
2024-05-09T01:15:35.728Z,2.40
2024-05-09T01:18:07.767Z,2.40
2024-05-09T01:20:41.532Z,2.17
2024-05-09T01:23:11.842Z,2.47
2024-05-09T01:25:39.751Z,2.20
2024-05-09T01:28:06.999Z,2.20
2024-05-09T01:30:36.748Z,2.37
2024-05-09T01:33:09.653Z,2.37
2024-05-09T01:35:40.844Z,2.37
2024-05-09T01:38:12.039Z,2.53
2024-05-09T01:40:40.364Z,2.57
2024-05-09T01:43:09.339Z,2.20
2024-05-09T01:45:37.756Z,2.47
2024-05-09T01:48:05.469Z,2.40
2024-05-09T01:50:38.892Z,2.20
2024-05-09T01:53:10.458Z,2.20
2024-05-09T01:55:37.865Z,2.23
2024-05-09T01:58:05.281Z,2.87
2024-05-09T02:00:39.115Z,2.47
2024-05-09T02:03:11.269Z,2.50
2024-05-09T02:05:41.020Z,2.13
2024-05-09T02:08:08.416Z,2.60
2024-05-09T02:10:35.266Z,2.10
2024-05-09T02:13:02.514Z,2.10
2024-05-09T02:15:30.479Z,2.37
2024-05-09T02:17:57.805Z,2.30
2024-05-09T02:20:33.837Z,1.87
2024-05-09T02:23:04.977Z,2.20
2024-05-09T02:25:32.363Z,2.10
2024-05-09T02:28:00.097Z,2.23
2024-05-09T02:30:37.885Z,2.60
2024-05-09T02:33:08.894Z,1.97
2024-05-09T02:35:37.107Z,2.47
2024-05-09T02:38:04.450Z,2.10
2024-05-09T02:40:37.009Z,2.53
2024-05-09T02:43:06.832Z,2.27
2024-05-09T02:45:34.217Z,2.10
2024-05-09T02:48:02.135Z,2.30
2024-05-09T02:50:37.045Z,2.43
2024-05-09T02:53:09.411Z,2.40
2024-05-09T02:55:37.320Z,2.33
2024-05-09T02:58:04.628Z,2.43
2024-05-09T03:00:38.367Z,2.30
2024-05-09T03:03:09.965Z,2.30
2024-05-09T03:05:39.224Z,2.10
2024-05-09T03:08:06.737Z,2.20
2024-05-09T03:10:36.748Z,2.53
2024-05-09T03:13:08.634Z,2.17
2024-05-09T03:15:36.238Z,2.43
2024-05-09T03:18:04.626Z,2.10
2024-05-09T03:20:34.941Z,2.23
2024-05-09T03:23:04.134Z,2.50
2024-05-09T03:25:31.676Z,2.83
2024-05-09T03:27:59.487Z,2.50
2024-05-09T03:30:38.463Z,2.50
2024-05-09T03:33:18.005Z,2.10
2024-05-09T03:35:47.484Z,2.43
2024-05-09T03:38:14.999Z,2.33
2024-05-09T03:40:50.025Z,2.10
2024-05-09T03:43:19.021Z,1.93
2024-05-09T03:45:47.862Z,2.00
2024-05-09T03:48:15.265Z,2.40
2024-05-09T03:50:42.745Z,2.70
2024-05-09T03:53:13.940Z,2.20
2024-05-09T03:55:40.958Z,2.50
2024-05-09T03:58:08.866Z,2.33
2024-05-09T04:00:39.096Z,2.30
2024-05-09T04:03:10.175Z,2.10
2024-05-09T04:05:41.027Z,1.90
2024-05-09T04:08:09.996Z,2.40
2024-05-09T04:10:37.715Z,2.47
2024-05-09T04:13:04.771Z,2.33
2024-05-09T04:15:32.460Z,2.40
2024-05-09T04:18:00.345Z,2.73
2024-05-09T04:20:36.258Z,2.00
2024-05-09T04:23:08.277Z,2.20
2024-05-09T04:25:37.266Z,2.50
2024-05-09T04:28:04.944Z,2.60
2024-05-09T04:30:38.047Z,2.33
2024-05-09T04:33:10.133Z,1.90
2024-05-09T04:35:39.478Z,2.70
2024-05-09T04:38:07.087Z,2.10
2024-05-09T04:40:36.661Z,2.70
2024-05-09T04:43:06.047Z,2.50
2024-05-09T04:45:33.684Z,2.53
2024-05-09T04:48:01.190Z,2.37
2024-05-09T04:50:36.117Z,2.70
2024-05-09T04:53:08.141Z,3.20
2024-05-09T04:55:37.054Z,2.80
2024-05-09T04:58:04.981Z,2.30
2024-05-09T05:00:37.187Z,2.77
2024-05-09T05:03:13.902Z,2.53
2024-05-09T05:05:44.050Z,2.80
2024-05-09T05:08:16.610Z,2.60
2024-05-09T05:10:44.941Z,3.23
2024-05-09T05:13:16.471Z,3.17
2024-05-09T05:15:44.530Z,2.73
2024-05-09T05:18:11.928Z,2.50
2024-05-09T05:20:38.858Z,3.07
2024-05-09T05:23:08.711Z,2.40
2024-05-09T05:25:35.896Z,4.27
2024-05-09T05:28:04.090Z,3.53
2024-05-09T05:30:34.696Z,3.67
2024-05-09T05:33:02.719Z,3.07
2024-05-09T05:35:30.350Z,4.17
2024-05-09T05:37:57.800Z,5.47
2024-05-09T05:40:32.739Z,5.37
2024-05-09T05:43:08.445Z,6.23
2024-05-09T05:45:35.974Z,6.50
2024-05-09T05:48:04.538Z,7.00
2024-05-09T05:50:36.119Z,7.33
2024-05-09T05:53:08.939Z,8.23
2024-05-09T05:55:40.806Z,9.10
2024-05-09T05:58:11.858Z,8.93
2024-05-09T06:00:40.670Z,10.23
2024-05-09T06:03:09.591Z,9.50
2024-05-09T06:05:39.591Z,10.33
2024-05-09T06:08:07.543Z,10.20
2024-05-09T06:10:38.974Z,9.80
2024-05-09T06:13:10.337Z,11.20
2024-05-09T06:15:37.638Z,11.67
2024-05-09T06:18:08.952Z,12.10
2024-05-09T06:20:38.080Z,11.40
2024-05-09T06:23:09.859Z,11.80
2024-05-09T06:25:37.869Z,12.93
2024-05-09T06:28:05.190Z,12.80
2024-05-09T06:30:38.840Z,13.57
2024-05-09T06:33:10.753Z,13.47
2024-05-09T06:35:40.110Z,14.93
2024-05-09T06:38:11.022Z,14.43
2024-05-09T06:40:41.751Z,13.57
2024-05-09T06:43:15.036Z,14.00
2024-05-09T06:45:43.746Z,15.13
2024-05-09T06:48:11.160Z,15.13
2024-05-09T06:50:39.837Z,15.10
2024-05-09T06:53:07.982Z,15.70
2024-05-09T06:55:35.350Z,14.70
2024-05-09T06:58:02.660Z,14.90
2024-05-09T07:00:35.974Z,15.43
2024-05-09T07:03:11.905Z,15.47
2024-05-09T07:05:40.591Z,16.50
2024-05-09T07:08:08.177Z,14.97
2024-05-09T07:10:36.601Z,15.17
2024-05-09T07:13:09.314Z,14.80
2024-05-09T07:15:36.573Z,16.13
2024-05-09T07:18:10.093Z,15.73
2024-05-09T07:20:37.738Z,14.87
2024-05-09T07:23:04.893Z,14.67
2024-05-09T07:25:32.374Z,14.10
2024-05-09T07:27:59.726Z,14.03
2024-05-09T07:30:33.101Z,14.63
2024-05-09T07:33:02.271Z,14.30
2024-05-09T07:35:30.772Z,14.43
2024-05-09T07:37:58.468Z,14.10
2024-05-09T07:40:33.076Z,13.53
2024-05-09T07:43:08.117Z,13.37
2024-05-09T07:52:33.059Z,13.63
2024-05-09T07:55:56.020Z,12.20
2024-05-09T07:58:27.208Z,12.17
2024-05-09T08:00:55.113Z,11.77
2024-05-09T08:03:22.744Z,11.47
2024-05-09T08:05:51.463Z,11.77
2024-05-09T08:08:18.827Z,10.77
2024-05-09T08:10:46.307Z,10.20
2024-05-09T08:13:13.733Z,9.30
2024-05-09T08:15:41.065Z,10.07
2024-05-09T08:18:09.792Z,8.47
2024-05-09T08:20:41.329Z,10.67
2024-05-09T08:23:08.828Z,10.10
2024-05-09T08:25:36.955Z,11.10
2024-05-09T08:28:06.852Z,9.73
2024-05-09T08:30:37.274Z,9.40
2024-05-09T08:33:06.384Z,11.27
2024-05-09T08:35:34.782Z,8.93
2024-05-09T08:38:06.531Z,9.73
2024-05-09T08:40:36.318Z,9.20
2024-05-09T08:43:09.826Z,8.70
2024-05-09T08:45:39.437Z,9.40
2024-05-09T08:48:08.646Z,7.87
2024-05-09T08:50:39.616Z,7.90
2024-05-09T08:53:08.361Z,8.23
2024-05-09T08:55:40.169Z,6.77
2024-05-09T08:58:14.018Z,7.27
2024-05-09T09:00:43.287Z,8.43
2024-05-09T09:03:15.075Z,7.80
2024-05-09T09:06:11.914Z,7.93
2024-05-09T09:08:39.677Z,7.30
2024-05-09T09:11:07.141Z,8.30
2024-05-09T09:13:34.386Z,6.00
2024-05-09T09:16:02.900Z,4.93
2024-05-09T09:18:30.939Z,5.30
2024-05-09T09:20:58.446Z,6.03
2024-05-09T09:23:30.360Z,5.23
2024-05-09T09:26:00.754Z,5.53
2024-05-09T09:28:28.196Z,6.10
2024-05-09T09:31:01.749Z,8.00
2024-05-09T09:33:31.491Z,8.50
2024-05-09T09:35:59.007Z,7.63
2024-05-09T09:38:30.561Z,6.53
2024-05-09T09:40:59.797Z,5.93
2024-05-09T09:43:27.585Z,6.10
2024-05-09T09:45:55.855Z,6.10
2024-05-09T09:48:23.591Z,7.13
2024-05-09T09:50:55.244Z,6.63
2024-05-09T09:53:23.533Z,5.87
2024-05-09T09:55:52.156Z,6.00
2024-05-09T09:58:19.871Z,5.57
2024-05-09T10:00:47.394Z,5.70
2024-05-09T10:03:14.802Z,5.27
2024-05-09T10:05:45.322Z,5.73
2024-05-09T10:08:15.884Z,5.87
2024-05-09T10:10:47.317Z,4.97
2024-05-09T10:13:14.644Z,6.90
2024-05-09T10:15:46.480Z,5.90
2024-05-09T10:18:14.241Z,6.33
2024-05-09T10:20:49.283Z,6.83
2024-05-09T10:23:30.528Z,6.40
2024-05-09T10:26:03.218Z,6.47
2024-05-09T10:28:37.354Z,5.80
2024-05-09T10:31:09.219Z,5.80
2024-05-09T10:33:39.885Z,5.00
2024-05-09T10:36:26.226Z,5.37
2024-05-09T10:38:54.455Z,5.70
2024-05-09T10:41:22.517Z,5.77
2024-05-09T10:43:49.988Z,5.90
2024-05-09T10:46:18.921Z,5.23
2024-05-09T10:48:46.438Z,5.40
2024-05-09T10:51:14.058Z,5.67
2024-05-09T10:53:42.228Z,4.87
2024-05-09T10:56:09.952Z,5.00
2024-05-09T10:58:37.058Z,5.33
2024-05-09T11:01:06.676Z,4.97
2024-05-09T11:03:34.892Z,4.87
2024-05-09T11:06:02.580Z,4.97
2024-05-09T11:08:31.603Z,5.23
2024-05-09T11:10:59.570Z,4.33
2024-05-09T11:13:31.041Z,4.90
2024-05-09T11:15:58.753Z,4.60
2024-05-09T11:18:28.958Z,4.50
2024-05-09T11:20:58.332Z,4.87
2024-05-09T11:23:27.605Z,4.43
2024-05-09T11:25:55.838Z,4.60
2024-05-09T11:28:23.392Z,4.40
2024-05-09T11:30:50.914Z,4.50
2024-05-09T11:33:19.548Z,5.20
2024-05-09T11:35:47.431Z,5.20
2024-05-09T11:38:14.658Z,5.10
2024-05-09T11:40:41.954Z,5.23
2024-05-09T11:43:09.250Z,4.30
2024-05-09T11:45:36.530Z,5.40
2024-05-09T11:48:04.048Z,4.60
2024-05-09T11:50:35.365Z,4.93
2024-05-09T11:53:03.492Z,5.00
2024-05-09T11:55:30.933Z,4.20
2024-05-09T11:57:58.318Z,5.47
2024-05-09T12:00:33.955Z,4.00
2024-05-09T12:03:05.832Z,3.97
2024-05-09T12:05:34.394Z,4.57
2024-05-09T12:08:01.902Z,4.60
2024-05-09T12:10:33.797Z,4.80
2024-05-09T12:13:05.269Z,4.53
2024-05-09T12:15:37.300Z,3.90
2024-05-09T12:18:05.926Z,3.37
2024-05-09T12:20:37.691Z,3.40
2024-05-09T12:23:09.352Z,4.10
2024-05-09T12:25:37.816Z,3.40
2024-05-09T12:28:05.208Z,3.87
2024-05-09T12:30:37.525Z,3.70
2024-05-09T12:33:15.890Z,3.90
2024-05-09T12:35:45.377Z,4.07
2024-05-09T12:38:15.155Z,3.90
2024-05-09T12:40:42.844Z,4.03
2024-05-09T12:43:11.419Z,4.47
2024-05-09T12:45:39.373Z,4.40
2024-05-09T12:48:11.366Z,3.80
2024-05-09T12:50:39.585Z,3.53
2024-05-09T12:53:06.712Z,3.53
2024-05-09T12:55:40.645Z,3.30
2024-05-09T12:58:16.396Z,3.90
2024-05-09T13:00:44.657Z,3.43
2024-05-09T13:03:12.242Z,3.50
2024-05-09T13:05:41.383Z,3.40
2024-05-09T13:08:08.933Z,3.73
2024-05-09T13:10:36.250Z,3.00
2024-05-09T13:13:03.252Z,3.53
2024-05-09T13:15:31.609Z,3.47
2024-05-09T13:18:02.248Z,3.63
2024-05-09T13:20:34.312Z,3.73
2024-05-09T13:23:07.523Z,4.07
2024-05-09T13:25:35.713Z,3.57
2024-05-09T13:28:03.973Z,4.20
2024-05-09T13:30:39.157Z,4.00
2024-05-09T13:33:09.667Z,4.87
2024-05-09T13:35:37.372Z,4.70
2024-05-09T13:38:05.242Z,4.07
2024-05-09T13:40:35.260Z,3.60
2024-05-09T13:43:06.480Z,3.90
2024-05-09T13:45:34.103Z,4.23
2024-05-09T13:48:06.533Z,4.10
2024-05-09T13:50:36.334Z,3.20
2024-05-09T13:53:08.234Z,4.57
2024-05-09T13:55:39.119Z,4.40
2024-05-09T13:58:07.182Z,5.07
2024-05-09T14:00:44.171Z,4.20
2024-05-09T14:03:16.342Z,4.83
2024-05-09T14:05:44.518Z,4.13
2024-05-09T14:08:11.791Z,4.20
2024-05-09T14:10:44.528Z,3.77
2024-05-09T14:13:12.669Z,2.93
2024-05-09T14:15:40.325Z,3.30
2024-05-09T14:18:11.523Z,3.67
2024-05-09T14:20:40.612Z,3.13
2024-05-09T14:23:07.362Z,3.13
2024-05-09T14:25:38.754Z,3.80
2024-05-09T14:28:08.526Z,3.63
2024-05-09T14:30:37.847Z,3.37
2024-05-09T14:33:07.247Z,3.70
2024-05-09T14:35:35.560Z,2.90
2024-05-09T14:38:03.088Z,3.20
2024-05-09T14:40:40.332Z,3.30
2024-05-09T14:43:11.722Z,2.90
2024-05-09T14:45:38.978Z,3.13
2024-05-09T14:48:06.967Z,3.03
2024-05-09T14:50:38.501Z,3.20
2024-05-09T14:53:08.540Z,3.97
2024-05-09T14:55:37.811Z,3.53
2024-05-09T14:58:11.955Z,3.53
2024-05-09T15:00:47.903Z,2.97
2024-05-09T15:03:19.560Z,3.67
2024-05-09T15:05:47.705Z,3.20
2024-05-09T15:08:16.493Z,2.93
2024-05-09T15:10:43.825Z,3.00
2024-05-09T15:13:13.232Z,2.60
2024-05-09T15:15:42.783Z,3.43
2024-05-09T15:18:10.262Z,3.17
2024-05-09T15:20:37.903Z,3.20
2024-05-09T15:23:06.695Z,3.30
2024-05-09T15:25:35.450Z,2.93
2024-05-09T15:28:03.385Z,3.07
2024-05-09T15:30:32.905Z,2.90
2024-05-09T15:33:03.847Z,2.60
2024-05-09T15:35:32.036Z,3.00
2024-05-09T15:37:59.572Z,2.60
2024-05-09T15:40:35.748Z,2.80
2024-05-09T15:43:07.634Z,3.00
2024-05-09T15:45:35.465Z,3.63
2024-05-09T15:48:03.450Z,3.13
2024-05-09T15:50:37.634Z,3.20
2024-05-09T15:53:08.964Z,2.80
2024-05-09T15:55:36.737Z,2.80
2024-05-09T15:58:04.868Z,2.77
2024-05-09T16:00:38.481Z,2.73
2024-05-09T16:03:12.504Z,3.30
2024-05-09T16:05:41.587Z,3.07
2024-05-09T16:08:09.289Z,2.90
2024-05-09T16:10:38.679Z,3.27
2024-05-09T16:13:06.545Z,3.10
2024-05-09T16:15:33.840Z,3.43
2024-05-09T16:18:01.419Z,2.87
2024-05-09T16:20:37.347Z,3.20
2024-05-09T16:23:08.917Z,3.27
2024-05-09T16:25:36.290Z,5.00
2024-05-09T16:28:07.394Z,3.70
2024-05-09T16:30:38.190Z,2.90
2024-05-09T16:33:06.239Z,3.20
2024-05-09T16:35:34.640Z,3.23
2024-05-09T16:38:03.167Z,3.53
2024-05-09T16:40:37.645Z,3.80
2024-05-09T16:43:08.414Z,2.90
2024-05-09T16:45:35.817Z,3.40
2024-05-09T16:48:03.512Z,3.27
2024-05-09T16:50:34.233Z,2.80
2024-05-09T16:53:03.701Z,2.97
2024-05-09T16:55:30.799Z,3.50
2024-05-09T16:57:58.373Z,3.77
2024-05-09T17:00:36.077Z,3.20
2024-05-09T17:03:10.313Z,3.33
2024-05-09T17:05:38.872Z,3.30
2024-05-09T17:08:06.605Z,3.73
2024-05-09T17:10:35.320Z,3.10
2024-05-09T17:13:04.653Z,2.87
2024-05-09T17:15:33.707Z,3.00
2024-05-09T17:18:01.948Z,3.50
2024-05-09T17:20:34.068Z,3.53
2024-05-09T17:23:04.949Z,3.20
2024-05-09T17:25:32.996Z,3.20
2024-05-09T17:28:06.451Z,3.17
2024-05-09T17:30:36.853Z,2.73
2024-05-09T17:33:06.947Z,3.17
2024-05-09T17:35:34.518Z,2.93
2024-05-09T17:38:01.820Z,2.80
2024-05-09T17:40:33.627Z,2.70
2024-05-09T17:43:04.267Z,2.83
2024-05-09T17:45:32.051Z,2.70
2024-05-09T17:48:00.287Z,2.37
2024-05-09T17:50:34.888Z,2.40
2024-05-09T17:53:04.406Z,2.50
2024-05-09T17:55:31.942Z,2.67
2024-05-09T17:57:59.443Z,2.33
2024-05-09T18:02:57.048Z,2.47
2024-05-09T18:05:24.432Z,2.50
2024-05-09T18:07:51.748Z,2.93
2024-05-09T18:10:25.506Z,3.50
2024-05-09T18:12:57.303Z,2.90
2024-05-09T18:15:24.122Z,2.97
2024-05-09T18:17:51.893Z,2.67
2024-05-09T18:20:28.724Z,3.17
2024-05-09T18:23:06.134Z,3.40
2024-05-09T18:25:33.180Z,3.37
2024-05-09T18:28:02.047Z,3.53
2024-05-09T18:30:34.708Z,3.30
2024-05-09T18:33:04.716Z,3.30
2024-05-09T18:35:33.164Z,3.23
2024-05-09T18:38:00.523Z,3.03
2024-05-09T18:40:33.400Z,3.33
2024-05-09T18:43:04.706Z,3.40
2024-05-09T18:45:32.925Z,3.60
2024-05-09T18:47:59.826Z,3.43
2024-05-09T18:50:35.454Z,3.60
2024-05-09T18:53:06.110Z,2.87
2024-05-09T18:55:33.107Z,2.57
2024-05-09T18:58:00.502Z,2.53
2024-05-09T19:00:34.506Z,3.03
2024-05-09T19:03:06.396Z,2.27
2024-05-09T19:05:35.977Z,3.37
2024-05-09T19:08:03.407Z,3.33
2024-05-09T19:10:34.524Z,3.17
2024-05-09T19:13:07.989Z,4.00
2024-05-09T19:15:38.899Z,3.03
2024-05-09T19:18:06.850Z,3.70
2024-05-09T19:20:36.113Z,3.90
2024-05-09T19:23:04.816Z,3.97
2024-05-09T19:25:32.265Z,3.50
2024-05-09T19:27:59.636Z,4.20
2024-05-09T19:30:36.551Z,4.00
2024-05-09T19:33:08.222Z,3.70
2024-05-09T19:35:35.329Z,3.63
2024-05-09T19:38:02.461Z,3.87
2024-05-09T19:40:32.371Z,4.13
2024-05-09T19:43:02.661Z,3.93
2024-05-09T19:45:30.739Z,3.40
2024-05-09T19:47:58.420Z,3.50
2024-05-09T19:50:36.020Z,3.83
2024-05-09T19:53:08.955Z,3.90
2024-05-09T19:55:36.272Z,4.03
2024-05-09T19:58:05.449Z,3.60
2024-05-09T20:00:39.659Z,3.77
2024-05-09T20:03:09.847Z,4.37
2024-05-09T20:05:37.793Z,3.70
2024-05-09T20:08:05.791Z,3.83
2024-05-09T20:10:35.365Z,3.90
2024-05-09T20:13:04.781Z,3.80
2024-05-09T20:15:34.542Z,4.30
2024-05-09T20:18:04.323Z,3.70
2024-05-09T20:20:38.229Z,4.10
2024-05-09T20:23:09.646Z,4.27
2024-05-09T20:25:37.428Z,4.83
2024-05-09T20:28:05.933Z,4.23
2024-05-09T20:30:34.494Z,4.03
2024-05-09T20:33:05.234Z,4.00
2024-05-09T20:35:33.676Z,4.67
2024-05-09T20:38:02.317Z,4.03
2024-05-09T20:40:34.611Z,4.57
2024-05-09T20:43:05.445Z,4.53
2024-05-09T20:45:32.616Z,4.90
2024-05-09T20:48:00.077Z,4.63
2024-05-09T20:50:36.409Z,4.57
2024-05-09T20:53:09.527Z,5.07
2024-05-09T20:55:36.955Z,4.93
2024-05-09T20:58:04.454Z,5.37
2024-05-09T21:00:39.521Z,5.07
2024-05-09T21:03:10.622Z,4.93
2024-05-09T21:05:38.664Z,4.33
2024-05-09T21:08:06.380Z,4.93
2024-05-09T21:10:34.530Z,4.90
2024-05-09T21:13:02.914Z,4.93
2024-05-09T21:15:31.112Z,5.33
2024-05-09T21:17:58.831Z,5.87
2024-05-09T21:20:31.279Z,4.97
2024-05-09T21:22:59.916Z,4.70
2024-05-09T21:25:27.403Z,5.00
2024-05-09T21:27:54.817Z,5.57
2024-05-09T21:30:31.663Z,5.30
2024-05-09T21:33:08.300Z,5.57
2024-05-09T21:35:36.067Z,4.97
2024-05-09T21:38:04.503Z,5.30
2024-05-09T21:40:34.770Z,4.87
2024-05-09T21:43:04.481Z,5.50
2024-05-09T21:45:31.967Z,5.60
2024-05-09T21:47:59.442Z,5.50
2024-05-09T21:50:35.475Z,5.97
2024-05-09T21:53:07.099Z,5.73
2024-05-09T21:55:34.829Z,5.40
2024-05-09T21:58:02.720Z,5.70
2024-05-09T22:00:36.033Z,5.57
2024-05-09T22:03:09.295Z,6.13
2024-05-09T22:05:38.027Z,5.87
2024-05-09T22:08:05.679Z,6.40
2024-05-09T22:10:35.523Z,5.70
2024-05-09T22:13:05.303Z,5.50
2024-05-09T22:15:37.475Z,5.60
2024-05-09T22:18:05.931Z,5.87
2024-05-09T22:20:37.581Z,5.80
2024-05-09T22:23:06.418Z,5.33
2024-05-09T22:25:33.913Z,6.27
2024-05-09T22:28:01.992Z,6.00
2024-05-09T22:32:59.652Z,5.43
2024-05-09T22:35:26.954Z,5.43
2024-05-09T22:37:53.788Z,5.37
2024-05-09T22:40:29.450Z,6.00
2024-05-09T22:43:05.954Z,5.20
2024-05-09T22:45:33.326Z,5.97
2024-05-09T22:48:01.191Z,5.70
2024-05-09T22:50:33.124Z,6.17
2024-05-09T22:53:01.068Z,6.03
2024-05-09T22:55:28.601Z,5.70
2024-05-09T22:57:56.072Z,5.30
2024-05-09T23:02:54.579Z,5.40
2024-05-09T23:05:22.118Z,5.73
2024-05-09T23:07:49.398Z,5.60
2024-05-09T23:10:20.981Z,5.17
2024-05-09T23:12:54.034Z,5.10
2024-05-09T23:15:21.294Z,6.17
2024-05-09T23:17:48.538Z,5.80
2024-05-09T23:20:21.726Z,5.70
2024-05-09T23:22:56.177Z,5.00
2024-05-09T23:25:23.498Z,5.40
2024-05-09T23:27:50.350Z,5.80
2024-05-09T23:30:28.439Z,6.30
2024-05-09T23:33:01.631Z,5.83
2024-05-09T23:35:29.031Z,6.03
2024-05-09T23:37:56.251Z,5.40
2024-05-09T23:40:26.693Z,5.77
2024-05-09T23:42:57.373Z,5.60
2024-05-09T23:45:24.579Z,5.13
2024-05-09T23:47:52.114Z,5.60
2024-05-09T23:50:26.349Z,5.73
2024-05-09T23:52:59.975Z,5.63
2024-05-09T23:55:27.227Z,6.82
2024-05-09T23:57:54.690Z,5.93
